createdAt,value
2022-12-01T00:00:06.411Z,4.80
2022-12-01T00:02:08.179Z,4.80
2022-12-01T00:04:10.089Z,4.80
2022-12-01T00:06:11.672Z,4.70
2022-12-01T00:08:13.309Z,4.80
2022-12-01T00:10:26.843Z,4.80
2022-12-01T00:12:29.261Z,4.80
2022-12-01T00:14:30.915Z,4.90
2022-12-01T00:16:32.775Z,4.80
2022-12-01T00:18:34.486Z,4.80
2022-12-01T00:20:36.318Z,4.80
2022-12-01T00:22:38.421Z,4.70
2022-12-01T00:24:40.127Z,4.80
2022-12-01T00:26:41.699Z,4.80
2022-12-01T00:28:43.585Z,4.70
2022-12-01T00:30:45.257Z,4.80
2022-12-01T00:32:47.167Z,4.70
2022-12-01T00:34:48.713Z,4.70
2022-12-01T00:36:50.454Z,4.70
2022-12-01T00:38:53.114Z,4.70
2022-12-01T00:40:54.710Z,4.70
2022-12-01T00:42:56.255Z,4.70
2022-12-01T00:44:57.793Z,4.70
2022-12-01T00:46:59.399Z,4.70
2022-12-01T00:49:01.004Z,4.70
2022-12-01T00:51:03.189Z,4.70
2022-12-01T00:53:04.800Z,4.70
2022-12-01T00:55:06.517Z,4.80
2022-12-01T00:57:08.425Z,4.80
2022-12-01T00:59:10.016Z,4.70
2022-12-01T01:01:11.715Z,4.60
2022-12-01T01:03:13.542Z,4.70
2022-12-01T01:05:15.163Z,4.70
2022-12-01T01:07:17.864Z,4.70
2022-12-01T01:09:19.535Z,4.70
2022-12-01T01:11:21.075Z,4.70
2022-12-01T01:13:22.683Z,4.70
2022-12-01T01:15:24.317Z,4.60
2022-12-01T01:17:25.969Z,4.60
2022-12-01T01:19:27.531Z,4.60
2022-12-01T01:21:29.085Z,4.60
2022-12-01T01:23:30.723Z,4.60
2022-12-01T01:25:33.077Z,4.50
2022-12-01T01:27:35.051Z,4.60
2022-12-01T01:29:36.809Z,4.60
2022-12-01T01:31:38.753Z,4.60
2022-12-01T01:33:40.425Z,4.60
2022-12-01T01:35:42.018Z,4.60
2022-12-01T01:37:43.570Z,4.60
2022-12-01T01:39:45.701Z,4.60
2022-12-01T01:41:47.421Z,4.60
2022-12-01T01:43:50.299Z,4.70
2022-12-01T01:45:51.877Z,4.60
2022-12-01T01:47:53.993Z,4.60
2022-12-01T01:49:57.051Z,4.60
2022-12-01T01:51:58.683Z,4.60
2022-12-01T01:54:02.601Z,4.50
2022-12-01T01:56:04.500Z,4.50
2022-12-01T01:58:07.826Z,4.50
2022-12-01T02:00:11.104Z,4.50
2022-12-01T02:02:13.071Z,4.50
2022-12-01T02:04:15.262Z,4.50
2022-12-01T02:06:16.981Z,4.50
2022-12-01T02:08:18.617Z,4.60
2022-12-01T02:10:23.606Z,4.60
2022-12-01T02:12:40.516Z,4.60
2022-12-01T02:14:56.046Z,4.60
2022-12-01T02:17:00.467Z,4.50
2022-12-01T02:19:04.871Z,4.50
2022-12-01T02:21:15.646Z,4.50
2022-12-01T02:23:17.196Z,4.50
2022-12-01T02:25:18.774Z,4.50
2022-12-01T02:27:20.308Z,4.50
2022-12-01T02:29:34.102Z,4.50
2022-12-01T02:31:38.759Z,4.50
2022-12-01T02:33:42.586Z,4.50
2022-12-01T02:35:56.004Z,4.40
2022-12-01T02:38:00.382Z,4.40
2022-12-01T02:40:09.403Z,4.40
2022-12-01T02:42:42.834Z,4.30
2022-12-01T02:44:44.645Z,4.40
2022-12-01T02:46:50.837Z,4.40
2022-12-01T02:48:54.042Z,4.40
2022-12-01T02:50:57.587Z,4.40
2022-12-01T02:52:59.781Z,4.40
2022-12-01T02:55:01.363Z,4.50
2022-12-01T02:57:03.017Z,4.50
2022-12-01T02:59:14.385Z,4.40
2022-12-01T03:01:21.777Z,4.40
2022-12-01T03:03:24.724Z,4.30
2022-12-01T03:05:29.403Z,4.30
2022-12-01T03:07:40.570Z,4.30
2022-12-01T03:09:42.281Z,4.30
2022-12-01T03:11:56.704Z,4.40
2022-12-01T03:14:16.897Z,4.30
2022-12-01T03:16:21.550Z,4.30
2022-12-01T03:18:23.154Z,4.30
2022-12-01T03:20:27.843Z,4.40
2022-12-01T03:22:34.538Z,4.30
2022-12-01T03:24:37.256Z,4.20
2022-12-01T03:26:40.705Z,4.20
2022-12-01T03:28:56.606Z,4.20
2022-12-01T03:31:01.463Z,4.20
2022-12-01T03:33:09.836Z,4.10
2022-12-01T03:35:16.086Z,4.20
2022-12-01T03:37:21.135Z,4.10
2022-12-01T03:39:25.333Z,4.20
2022-12-01T03:41:29.867Z,4.20
2022-12-01T03:43:32.624Z,4.20
2022-12-01T03:45:36.422Z,4.20
2022-12-01T03:47:39.547Z,4.20
2022-12-01T03:49:41.387Z,4.10
2022-12-01T03:51:49.534Z,4.10
2022-12-01T03:54:07.953Z,4.10
2022-12-01T03:56:09.876Z,4.20
2022-12-01T03:58:13.630Z,4.10
2022-12-01T04:00:15.526Z,4.10
2022-12-01T04:02:17.355Z,4.10
2022-12-01T04:04:19.003Z,4.10
2022-12-01T04:06:20.574Z,4.20
2022-12-01T04:08:22.145Z,4.10
2022-12-01T04:10:23.733Z,4.10
2022-12-01T04:12:32.838Z,4.00
2022-12-01T04:14:34.471Z,4.10
2022-12-01T04:16:36.141Z,4.10
2022-12-01T04:18:37.751Z,4.10
2022-12-01T04:20:39.409Z,4.10
2022-12-01T04:22:41.181Z,4.20
2022-12-01T04:24:42.832Z,4.20
2022-12-01T04:26:46.034Z,4.20
2022-12-01T04:28:47.764Z,4.20
2022-12-01T04:30:49.383Z,4.20
2022-12-01T04:32:50.969Z,4.20
2022-12-01T04:34:52.978Z,4.30
2022-12-01T04:36:55.178Z,4.20
2022-12-01T04:38:57.035Z,4.10
2022-12-01T04:40:58.800Z,4.10
2022-12-01T04:43:00.436Z,4.10
2022-12-01T04:45:02.024Z,4.20
2022-12-01T04:47:04.415Z,4.20
2022-12-01T04:49:06.206Z,4.20
2022-12-01T04:51:08.253Z,4.10
2022-12-01T04:53:09.867Z,4.10
2022-12-01T04:55:11.504Z,4.20
2022-12-01T04:57:13.097Z,4.20
2022-12-01T04:59:14.706Z,4.20
2022-12-01T05:01:17.436Z,4.00
2022-12-01T05:03:19.076Z,4.10
2022-12-01T05:05:20.683Z,4.00
2022-12-01T05:07:22.285Z,4.00
2022-12-01T05:09:23.902Z,4.10
2022-12-01T05:11:27.884Z,4.10
2022-12-01T05:13:29.444Z,4.00
2022-12-01T05:15:31.436Z,4.10
2022-12-01T05:17:36.902Z,4.20
2022-12-01T05:19:57.703Z,4.20
2022-12-01T05:21:59.321Z,4.20
2022-12-01T05:24:00.925Z,4.20
2022-12-01T05:26:04.087Z,4.10
2022-12-01T05:28:06.535Z,4.10
2022-12-01T05:30:08.689Z,4.10
2022-12-01T05:32:10.295Z,4.10
2022-12-01T05:34:11.869Z,4.10
2022-12-01T05:36:13.455Z,4.00
2022-12-01T05:38:15.310Z,4.10
2022-12-01T05:40:16.915Z,4.10
2022-12-01T05:42:18.443Z,4.10
2022-12-01T05:44:20.062Z,4.10
2022-12-01T05:46:21.704Z,4.10
2022-12-01T05:48:23.845Z,4.10
2022-12-01T05:50:26.063Z,4.20
2022-12-01T05:52:27.691Z,4.20
2022-12-01T05:54:29.776Z,4.10
2022-12-01T05:56:31.328Z,4.20
2022-12-01T05:58:33.214Z,4.10
2022-12-01T06:00:36.191Z,4.10
2022-12-01T06:02:40.840Z,4.10
2022-12-01T06:04:42.911Z,4.00
2022-12-01T06:06:44.559Z,4.00
2022-12-01T06:08:46.193Z,4.10
2022-12-01T06:10:49.349Z,4.10
2022-12-01T06:12:50.984Z,4.20
2022-12-01T06:14:52.582Z,4.00
2022-12-01T06:16:54.232Z,4.00
2022-12-01T06:18:55.870Z,4.00
2022-12-01T06:20:57.422Z,4.10
2022-12-01T06:22:59.590Z,4.10
2022-12-01T06:25:01.163Z,4.10
2022-12-01T06:27:02.742Z,4.10
2022-12-01T06:29:04.330Z,4.10
2022-12-01T06:31:06.103Z,4.10
2022-12-01T06:33:07.801Z,4.10
2022-12-01T06:35:09.417Z,4.10
2022-12-01T06:37:11.218Z,4.10
2022-12-01T06:39:14.873Z,4.00
2022-12-01T06:41:16.434Z,4.00
2022-12-01T06:43:18.015Z,4.00
2022-12-01T06:45:19.592Z,4.10
2022-12-01T06:47:21.158Z,4.10
2022-12-01T06:49:22.712Z,4.10
2022-12-01T06:51:24.298Z,4.10
2022-12-01T06:53:29.932Z,4.00
2022-12-01T06:55:31.583Z,4.00
2022-12-01T06:57:33.401Z,4.10
2022-12-01T06:59:35.225Z,4.00
2022-12-01T07:01:37.077Z,4.00
2022-12-01T07:03:39.076Z,3.90
2022-12-01T07:05:40.699Z,4.00
2022-12-01T07:07:42.556Z,3.90
2022-12-01T07:09:44.471Z,4.10
2022-12-01T07:11:46.126Z,4.10
2022-12-01T07:13:49.605Z,4.20
2022-12-01T07:15:51.244Z,4.20
2022-12-01T07:17:52.897Z,4.20
2022-12-01T07:19:54.542Z,4.00
2022-12-01T07:21:56.261Z,4.00
2022-12-01T07:23:58.203Z,3.90
2022-12-01T07:26:00.835Z,4.00
2022-12-01T07:28:02.442Z,4.10
2022-12-01T07:30:04.265Z,4.10
2022-12-01T07:32:05.921Z,4.20
2022-12-01T07:34:10.244Z,4.10
2022-12-01T07:36:12.409Z,4.00
2022-12-01T07:38:19.101Z,4.00
2022-12-01T07:40:23.747Z,4.00
2022-12-01T07:42:25.416Z,4.00
2022-12-01T07:44:27.109Z,4.00
2022-12-01T07:46:28.905Z,4.00
2022-12-01T07:48:31.040Z,4.00
2022-12-01T07:50:32.690Z,4.00
2022-12-01T07:52:34.331Z,4.10
2022-12-01T07:54:35.978Z,4.00
2022-12-01T07:56:39.632Z,4.00
2022-12-01T07:58:41.819Z,4.10
2022-12-01T08:00:43.430Z,4.10
2022-12-01T08:02:45.084Z,4.20
2022-12-01T08:04:46.773Z,4.00
2022-12-01T08:06:48.343Z,4.00
2022-12-01T08:08:52.204Z,3.90
2022-12-01T08:10:53.975Z,3.90
2022-12-01T08:12:56.372Z,4.00
2022-12-01T08:14:58.866Z,4.20
2022-12-01T08:17:13.284Z,4.20
2022-12-01T08:19:15.077Z,4.30
2022-12-01T08:21:18.291Z,4.30
2022-12-01T08:23:19.887Z,4.30
2022-12-01T08:25:21.603Z,4.40
2022-12-01T08:27:23.262Z,4.40
2022-12-01T08:29:24.911Z,4.40
2022-12-01T08:31:28.509Z,4.30
2022-12-01T08:33:31.441Z,4.10
2022-12-01T08:35:35.602Z,4.20
2022-12-01T08:37:37.283Z,4.10
2022-12-01T08:39:39.079Z,4.10
2022-12-01T08:41:40.799Z,4.10
2022-12-01T08:44:00.997Z,4.10
2022-12-01T08:46:03.246Z,4.20
2022-12-01T08:48:04.947Z,4.20
2022-12-01T08:50:07.129Z,4.20
2022-12-01T08:52:08.836Z,4.20
2022-12-01T08:54:10.886Z,4.30
2022-12-01T08:56:35.762Z,4.30
2022-12-01T08:58:37.429Z,4.30
2022-12-01T09:00:39.134Z,4.30
2022-12-01T09:02:40.929Z,4.30
2022-12-01T09:04:42.776Z,4.40
2022-12-01T09:06:45.562Z,4.50
2022-12-01T09:08:47.497Z,4.50
2022-12-01T09:10:52.922Z,4.40
2022-12-01T09:12:54.639Z,4.50
2022-12-01T09:14:56.363Z,4.40
2022-12-01T09:17:04.337Z,4.40
2022-12-01T09:19:06.231Z,4.30
2022-12-01T09:21:10.874Z,4.20
2022-12-01T09:23:12.513Z,4.30
2022-12-01T09:25:14.793Z,4.50
2022-12-01T09:27:16.442Z,4.50
2022-12-01T09:29:18.092Z,4.50
2022-12-01T09:31:20.779Z,4.50
2022-12-01T09:33:22.522Z,4.40
2022-12-01T09:35:29.835Z,4.40
2022-12-01T09:37:31.486Z,4.40
2022-12-01T09:39:33.135Z,4.40
2022-12-01T09:44:05.777Z,4.30
2022-12-01T09:46:09.326Z,4.30
2022-12-01T09:48:19.804Z,4.30
2022-12-01T09:50:25.272Z,4.20
2022-12-01T09:52:28.823Z,4.20
2022-12-01T09:54:30.601Z,4.30
2022-12-01T09:56:41.298Z,4.40
2022-12-01T09:58:43.098Z,4.50
2022-12-01T10:00:45.881Z,4.50
2022-12-01T10:02:53.349Z,4.40
2022-12-01T10:04:56.687Z,4.40
2022-12-01T10:07:01.069Z,4.50
2022-12-01T10:09:12.339Z,4.60
2022-12-01T10:11:27.956Z,4.60
2022-12-01T10:13:29.999Z,4.70
2022-12-01T10:15:39.892Z,4.80
2022-12-01T10:17:42.951Z,4.80
2022-12-01T10:19:57.184Z,4.70
2022-12-01T10:22:06.988Z,4.70
2022-12-01T10:24:18.098Z,4.60
2022-12-01T10:26:34.565Z,4.70
2022-12-01T10:28:44.015Z,4.80
2022-12-01T10:30:49.899Z,4.80
2022-12-01T10:32:56.287Z,4.60
2022-12-01T10:34:58.213Z,4.70
2022-12-01T10:37:00.456Z,4.70
2022-12-01T10:39:03.887Z,4.80
2022-12-01T10:41:08.054Z,4.80
2022-12-01T10:43:10.668Z,4.80
2022-12-01T10:45:15.041Z,4.70
2022-12-01T10:47:23.514Z,4.60
2022-12-01T10:49:35.831Z,4.60
2022-12-01T10:51:55.264Z,4.60
2022-12-01T10:54:06.589Z,4.70
2022-12-01T10:56:21.606Z,4.70
2022-12-01T10:58:28.710Z,4.70
2022-12-01T11:00:58.440Z,4.70
2022-12-01T11:05:27.865Z,4.60
2022-12-01T11:07:42.395Z,4.70
2022-12-01T11:09:45.764Z,4.70
2022-12-01T11:11:54.511Z,4.70
2022-12-01T11:13:57.109Z,4.80
2022-12-01T11:16:03.286Z,4.80
2022-12-01T11:18:23.554Z,4.90
2022-12-01T11:20:26.503Z,4.80
2022-12-01T11:22:33.034Z,4.80
2022-12-01T11:24:43.081Z,4.90
2022-12-01T11:26:44.797Z,5.00
2022-12-01T11:28:54.520Z,5.00
2022-12-01T11:31:07.504Z,5.00
2022-12-01T11:33:15.037Z,5.10
2022-12-01T11:35:18.173Z,5.10
2022-12-01T11:37:21.100Z,4.90
2022-12-01T11:39:25.999Z,5.10
2022-12-01T11:41:39.112Z,5.10
2022-12-01T11:43:46.519Z,5.10
2022-12-01T11:45:50.829Z,5.10
2022-12-01T11:47:58.375Z,5.20
2022-12-01T11:50:01.363Z,4.90
2022-12-01T11:52:16.753Z,4.90
2022-12-01T11:54:18.301Z,4.90
2022-12-01T11:56:20.825Z,5.10
2022-12-01T11:58:22.479Z,5.10
2022-12-01T12:00:25.932Z,5.10
2022-12-01T12:02:36.041Z,5.30
2022-12-01T12:04:53.111Z,5.20
2022-12-01T12:07:13.434Z,5.20
2022-12-01T12:09:20.655Z,5.20
2022-12-01T12:11:24.465Z,5.20
2022-12-01T12:13:49.385Z,5.20
2022-12-01T12:15:58.261Z,5.30
2022-12-01T12:18:02.479Z,5.20
2022-12-01T12:20:23.277Z,5.20
2022-12-01T12:22:43.383Z,5.30
2022-12-01T12:25:00.732Z,5.40
2022-12-01T12:27:11.511Z,5.30
2022-12-01T12:29:30.801Z,5.20
2022-12-01T12:31:42.289Z,5.20
2022-12-01T12:33:50.093Z,5.20
2022-12-01T12:36:09.866Z,5.30
2022-12-01T12:38:23.844Z,5.30
2022-12-01T12:40:41.483Z,5.30
2022-12-01T12:42:52.022Z,5.40
2022-12-01T12:44:58.752Z,5.20
2022-12-01T12:47:00.295Z,5.20
2022-12-01T12:52:02.600Z,5.30
2022-12-01T12:54:23.333Z,5.40
2022-12-01T12:56:26.025Z,5.40
2022-12-01T12:58:41.734Z,5.50
2022-12-01T13:00:46.361Z,5.50
2022-12-01T13:02:51.159Z,5.40
2022-12-01T13:05:05.163Z,5.30
2022-12-01T13:07:22.199Z,5.30
2022-12-01T13:09:27.073Z,5.40
2022-12-01T13:12:04.014Z,5.40
2022-12-01T13:14:07.672Z,5.50
2022-12-01T13:16:15.101Z,5.40
2022-12-01T13:18:26.422Z,5.40
2022-12-01T13:20:29.761Z,5.50
2022-12-01T13:22:35.256Z,5.40
2022-12-01T13:24:36.972Z,5.40
2022-12-01T13:26:39.649Z,5.40
2022-12-01T13:28:43.795Z,5.40
2022-12-01T13:31:09.134Z,5.40
2022-12-01T13:33:14.877Z,5.30
2022-12-01T13:35:22.635Z,5.40
2022-12-01T13:37:29.008Z,5.50
2022-12-01T13:39:40.740Z,5.50
2022-12-01T13:41:43.801Z,5.50
2022-12-01T13:43:53.247Z,5.50
2022-12-01T13:46:01.575Z,5.50
2022-12-01T13:48:05.951Z,5.60
2022-12-01T13:50:46.587Z,5.40
2022-12-01T13:52:49.258Z,5.50
2022-12-01T13:54:56.893Z,5.50
2022-12-01T13:57:00.783Z,5.40
2022-12-01T13:59:02.680Z,5.40
2022-12-01T14:01:19.546Z,5.40
2022-12-01T14:03:21.387Z,5.50
2022-12-01T14:05:23.065Z,5.40
2022-12-01T14:07:35.025Z,5.30
2022-12-01T14:09:38.437Z,5.40
2022-12-01T14:11:40.266Z,5.40
2022-12-01T14:14:00.283Z,5.40
2022-12-01T14:16:03.173Z,5.20
2022-12-01T14:18:26.181Z,5.10
2022-12-01T14:20:28.403Z,5.10
2022-12-01T14:22:46.436Z,5.20
2022-12-01T14:24:52.971Z,5.20
2022-12-01T14:26:55.163Z,5.30
2022-12-01T14:28:59.808Z,5.20
2022-12-01T14:31:05.448Z,5.20
2022-12-01T14:33:25.911Z,5.10
2022-12-01T14:35:27.489Z,5.20
2022-12-01T14:37:33.957Z,5.30
2022-12-01T14:39:37.112Z,5.30
2022-12-01T14:41:39.105Z,5.20
2022-12-01T14:44:00.372Z,5.20
2022-12-01T14:46:06.060Z,5.20
2022-12-01T14:48:16.625Z,5.10
2022-12-01T14:50:30.703Z,5.10
2022-12-01T14:52:35.771Z,5.10
2022-12-01T14:54:45.181Z,5.10
2022-12-01T14:56:47.937Z,5.10
2022-12-01T14:58:55.660Z,5.10
2022-12-01T15:01:14.229Z,5.10
2022-12-01T15:03:15.865Z,5.10
2022-12-01T15:05:18.643Z,5.10
2022-12-01T15:07:21.384Z,5.10
2022-12-01T15:09:39.025Z,5.20
2022-12-01T15:12:03.605Z,5.20
2022-12-01T15:14:21.041Z,5.20
2022-12-01T15:16:26.411Z,5.20
2022-12-01T15:18:32.517Z,5.20
2022-12-01T15:20:41.208Z,5.20
2022-12-01T15:22:45.247Z,5.20
2022-12-01T15:24:47.130Z,5.20
2022-12-01T15:26:50.589Z,5.30
2022-12-01T15:29:04.100Z,5.20
2022-12-01T15:31:09.831Z,5.20
2022-12-01T15:33:19.041Z,5.30
2022-12-01T15:35:23.595Z,5.20
2022-12-01T15:37:27.032Z,5.30
2022-12-01T15:39:36.724Z,5.30
2022-12-01T15:41:39.521Z,5.30
2022-12-01T15:43:41.232Z,5.30
2022-12-01T15:46:00.637Z,5.20
2022-12-01T15:48:14.239Z,5.20
2022-12-01T15:50:25.291Z,5.10
2022-12-01T15:52:27.075Z,5.10
2022-12-01T15:54:28.822Z,5.20
2022-12-01T15:56:34.422Z,5.20
2022-12-01T15:58:41.091Z,5.10
2022-12-01T16:00:52.494Z,5.10
2022-12-01T16:02:55.388Z,5.20
2022-12-01T16:05:01.707Z,5.20
2022-12-01T16:07:05.679Z,5.30
2022-12-01T16:09:23.082Z,5.20
2022-12-01T16:11:25.137Z,5.20
2022-12-01T16:13:45.026Z,5.30
2022-12-01T16:15:46.578Z,5.20
2022-12-01T16:17:49.438Z,5.10
2022-12-01T16:20:11.891Z,5.20
2022-12-01T16:22:15.985Z,5.20
2022-12-01T16:24:29.262Z,5.20
2022-12-01T16:26:32.086Z,5.20
2022-12-01T16:28:37.272Z,5.10
2022-12-01T16:30:39.552Z,5.20
2022-12-01T16:32:42.385Z,5.20
2022-12-01T16:34:46.491Z,5.30
2022-12-01T16:36:48.608Z,5.20
2022-12-01T16:38:50.224Z,5.20
2022-12-01T16:40:55.588Z,5.20
2022-12-01T16:42:57.140Z,5.20
2022-12-01T16:44:58.819Z,5.30
2022-12-01T16:47:00.395Z,5.20
2022-12-01T16:49:02.016Z,5.20
2022-12-01T16:51:04.719Z,5.20
2022-12-01T16:53:06.324Z,5.20
2022-12-01T16:55:26.939Z,5.20
2022-12-01T16:57:28.634Z,5.20
2022-12-01T16:59:30.919Z,5.20
2022-12-01T17:01:32.586Z,5.10
2022-12-01T17:03:34.204Z,5.10
2022-12-01T17:05:36.913Z,5.20
2022-12-01T17:07:38.709Z,5.20
2022-12-01T17:09:40.351Z,5.10
2022-12-01T17:11:42.016Z,5.10
2022-12-01T17:13:45.978Z,5.20
2022-12-01T17:15:48.921Z,5.20
2022-12-01T17:17:51.260Z,5.10
2022-12-01T17:19:53.115Z,5.10
2022-12-01T17:21:56.971Z,5.10
2022-12-01T17:23:58.559Z,5.10
2022-12-01T17:26:00.674Z,5.10
2022-12-01T17:28:02.386Z,5.20
2022-12-01T17:30:04.797Z,5.20
2022-12-01T17:32:09.035Z,5.20
2022-12-01T17:34:10.583Z,5.20
2022-12-01T17:36:12.999Z,5.20
2022-12-01T17:38:14.574Z,5.20
2022-12-01T17:40:16.230Z,5.10
2022-12-01T17:42:17.874Z,5.20
2022-12-01T17:44:19.472Z,5.10
2022-12-01T17:46:21.222Z,5.20
2022-12-01T17:48:22.936Z,5.20
2022-12-01T17:50:24.547Z,5.20
2022-12-01T17:52:28.546Z,5.10
2022-12-01T17:54:30.725Z,5.10
2022-12-01T17:56:32.356Z,5.20
2022-12-01T17:58:34.192Z,5.20
2022-12-01T18:00:35.817Z,5.20
2022-12-01T18:02:37.479Z,5.20
2022-12-01T18:04:39.342Z,5.20
2022-12-01T18:06:41.021Z,5.30
2022-12-01T18:08:42.964Z,5.20
2022-12-01T18:10:44.565Z,5.20
2022-12-01T18:12:46.311Z,5.20
2022-12-01T18:14:48.047Z,5.20
2022-12-01T18:16:50.371Z,5.20
2022-12-01T18:18:52.147Z,5.20
2022-12-01T18:20:53.810Z,5.20
2022-12-01T18:22:55.449Z,5.20
2022-12-01T18:24:57.553Z,5.20
2022-12-01T18:26:59.118Z,5.20
2022-12-01T18:29:01.866Z,5.20
2022-12-01T18:31:08.156Z,5.30
2022-12-01T18:33:12.231Z,5.30
2022-12-01T18:35:13.891Z,5.40
2022-12-01T18:37:15.551Z,5.40
2022-12-01T18:39:17.126Z,5.30
2022-12-01T18:41:21.710Z,5.30
2022-12-01T18:43:23.297Z,5.30
2022-12-01T18:45:24.894Z,5.40
2022-12-01T18:47:28.042Z,5.30
2022-12-01T18:49:29.860Z,5.20
2022-12-01T18:51:32.857Z,5.20
2022-12-01T18:53:34.708Z,5.20
2022-12-01T18:55:36.638Z,5.10
2022-12-01T18:57:39.093Z,5.10
2022-12-01T18:59:40.813Z,5.10
2022-12-01T19:01:44.244Z,5.10
2022-12-01T19:03:46.482Z,5.10
2022-12-01T19:05:48.083Z,5.10
2022-12-01T19:07:50.149Z,5.10
2022-12-01T19:09:52.070Z,5.10
2022-12-01T19:11:59.745Z,5.10
2022-12-01T19:14:01.418Z,5.10
2022-12-01T19:16:11.025Z,5.20
2022-12-01T19:18:12.746Z,5.20
2022-12-01T19:20:14.447Z,5.10
2022-12-01T19:22:16.039Z,5.10
2022-12-01T19:24:17.669Z,5.20
2022-12-01T19:26:20.967Z,5.20
2022-12-01T19:28:23.143Z,5.10
2022-12-01T19:30:24.837Z,5.10
2022-12-01T19:32:26.483Z,5.10
2022-12-01T19:34:28.182Z,5.10
2022-12-01T19:36:30.107Z,5.10
2022-12-01T19:38:31.696Z,5.10
2022-12-01T19:40:33.579Z,5.00
2022-12-01T19:42:35.270Z,5.00
2022-12-01T19:44:36.835Z,5.10
2022-12-01T19:46:38.480Z,5.00
2022-12-01T19:48:40.084Z,5.10
2022-12-01T19:50:41.870Z,5.10
2022-12-01T19:52:43.497Z,5.10
2022-12-01T19:54:45.103Z,5.10
2022-12-01T19:56:46.859Z,5.10
2022-12-01T19:58:48.738Z,5.10
2022-12-01T20:00:50.363Z,5.10
2022-12-01T20:02:52.393Z,5.10
2022-12-01T20:04:54.639Z,5.10
2022-12-01T20:06:56.359Z,5.00
2022-12-01T20:08:59.233Z,4.90
2022-12-01T20:11:01.508Z,5.00
2022-12-01T20:13:03.423Z,5.00
2022-12-01T20:15:08.617Z,4.90
2022-12-01T20:17:15.587Z,4.90
2022-12-01T20:19:17.616Z,4.90
2022-12-01T20:21:22.373Z,5.00
2022-12-01T20:23:24.347Z,5.00
2022-12-01T20:25:26.037Z,5.00
2022-12-01T20:27:28.253Z,5.00
2022-12-01T20:29:30.189Z,4.90
2022-12-01T20:31:33.056Z,5.00
2022-12-01T20:33:34.806Z,5.00
2022-12-01T20:35:36.380Z,5.00
2022-12-01T20:37:40.578Z,5.00
2022-12-01T20:39:42.581Z,5.00
2022-12-01T20:41:44.627Z,5.00
2022-12-01T20:43:46.438Z,5.00
2022-12-01T20:45:48.470Z,5.00
2022-12-01T20:47:50.398Z,5.00
2022-12-01T20:49:55.529Z,5.00
2022-12-01T20:52:00.131Z,5.00
2022-12-01T20:54:27.184Z,5.00
2022-12-01T20:56:27.458Z,5.00
2022-12-01T20:58:33.205Z,5.10
2022-12-01T21:00:38.838Z,5.00
2022-12-01T21:02:41.125Z,5.10
2022-12-01T21:04:42.830Z,5.00
2022-12-01T21:06:44.708Z,5.00
2022-12-01T21:08:47.250Z,5.00
2022-12-01T21:10:48.924Z,5.10
2022-12-01T21:13:14.922Z,5.00
2022-12-01T21:15:27.119Z,5.00
2022-12-01T21:17:28.714Z,5.00
2022-12-01T21:19:40.290Z,5.00
2022-12-01T21:21:42.142Z,5.10
2022-12-01T21:23:43.883Z,5.00
2022-12-01T21:25:49.931Z,5.00
2022-12-01T21:27:51.753Z,5.00
2022-12-01T21:29:53.687Z,4.90
2022-12-01T21:31:58.672Z,4.90
2022-12-01T21:34:01.389Z,5.00
2022-12-01T21:36:07.763Z,5.00
2022-12-01T21:38:16.503Z,5.00
2022-12-01T21:40:22.001Z,5.00
2022-12-01T21:42:27.860Z,5.00
2022-12-01T21:44:42.965Z,5.00
2022-12-01T21:46:45.605Z,5.00
2022-12-01T21:48:49.702Z,5.00
2022-12-01T21:51:01.671Z,5.10
2022-12-01T21:53:12.214Z,5.50
2022-12-01T21:55:19.656Z,5.60
2022-12-01T21:57:32.776Z,5.40
2022-12-01T22:04:45.355Z,5.10
2022-12-01T22:06:56.183Z,5.10
2022-12-01T22:08:59.879Z,5.10
2022-12-01T22:11:04.763Z,5.10
2022-12-01T22:13:09.576Z,5.10
2022-12-01T22:15:36.645Z,5.10
2022-12-01T22:17:39.668Z,5.10
2022-12-01T22:19:44.697Z,5.00
2022-12-01T22:21:48.125Z,5.00
2022-12-01T22:23:53.220Z,5.00
2022-12-01T22:25:58.117Z,5.00
2022-12-01T22:28:03.160Z,5.00
2022-12-01T22:30:05.925Z,5.10
2022-12-01T22:32:18.020Z,5.00
2022-12-01T22:34:19.934Z,5.00
2022-12-01T22:36:26.816Z,5.00
2022-12-01T22:38:37.898Z,5.00
2022-12-01T22:40:40.990Z,5.00
2022-12-01T22:42:42.735Z,4.90
2022-12-01T22:44:45.033Z,5.00
2022-12-01T22:46:48.923Z,5.00
2022-12-01T22:48:59.805Z,5.00
2022-12-01T22:51:13.978Z,5.00
2022-12-01T22:53:16.898Z,5.00
2022-12-01T22:55:22.104Z,5.00
2022-12-01T22:57:24.315Z,5.00
2022-12-01T22:59:35.725Z,5.00
2022-12-01T23:01:42.582Z,5.00
2022-12-01T23:03:44.255Z,5.00
2022-12-01T23:05:45.948Z,5.00
2022-12-01T23:07:47.691Z,5.00
2022-12-01T23:09:52.033Z,5.00
2022-12-01T23:12:05.161Z,5.00
2022-12-01T23:14:11.744Z,5.00
2022-12-01T23:16:13.748Z,5.00
2022-12-01T23:18:21.938Z,5.00
2022-12-01T23:20:25.971Z,5.10
2022-12-01T23:22:27.659Z,5.00
2022-12-01T23:24:33.705Z,5.00
2022-12-01T23:26:35.792Z,5.00
2022-12-01T23:28:38.878Z,5.10
2022-12-01T23:30:41.656Z,5.10
2022-12-01T23:32:43.879Z,5.00
2022-12-01T23:34:45.575Z,5.00
2022-12-01T23:36:48.112Z,5.00
2022-12-01T23:38:53.949Z,5.10
2022-12-01T23:40:59.849Z,5.10
2022-12-01T23:43:11.946Z,5.10
2022-12-01T23:45:21.424Z,5.10
2022-12-01T23:47:24.634Z,5.00
2022-12-01T23:49:29.476Z,5.00
2022-12-01T23:51:32.680Z,5.00
2022-12-01T23:53:34.325Z,5.00
2022-12-01T23:55:38.973Z,5.00
2022-12-01T23:57:40.668Z,5.00
2022-12-01T23:59:42.497Z,5.00
